createdAt,value
2019-03-26T00:02:27.031Z,4.10
2019-03-26T00:04:59.010Z,4.10
2019-03-26T00:07:31.447Z,4.20
2019-03-26T00:10:03.322Z,4.20
2019-03-26T00:12:35.636Z,4.20
2019-03-26T00:15:07.862Z,4.30
2019-03-26T00:17:40.472Z,4.20
2019-03-26T00:20:12.530Z,4.30
2019-03-26T00:22:44.450Z,4.30
2019-03-26T00:25:16.405Z,4.40
2019-03-26T00:27:50.094Z,4.40
2019-03-26T00:30:22.484Z,4.40
2019-03-26T00:32:55.782Z,4.30
2019-03-26T00:35:27.819Z,4.40
2019-03-26T00:37:59.927Z,4.40
2019-03-26T00:40:32.686Z,4.40
2019-03-26T00:43:04.811Z,4.50
2019-03-26T00:45:37.675Z,4.50
2019-03-26T00:48:10.117Z,4.50
2019-03-26T00:50:42.015Z,4.50
2019-03-26T00:53:14.237Z,4.50
2019-03-26T00:55:46.819Z,4.60
2019-03-26T00:58:19.042Z,4.50
2019-03-26T01:00:51.453Z,4.50
2019-03-26T01:03:23.469Z,4.50
2019-03-26T01:05:55.518Z,4.50
2019-03-26T01:08:27.467Z,4.50
2019-03-26T01:10:59.435Z,4.50
2019-03-26T01:13:31.389Z,4.40
2019-03-26T01:16:03.428Z,4.40
2019-03-26T01:18:35.422Z,4.40
2019-03-26T01:21:07.830Z,4.30
2019-03-26T01:23:39.836Z,4.30
2019-03-26T01:26:11.870Z,4.30
2019-03-26T01:28:44.127Z,4.30
2019-03-26T01:31:16.479Z,4.40
2019-03-26T01:33:48.805Z,4.40
2019-03-26T01:36:20.937Z,4.50
2019-03-26T01:38:52.989Z,4.60
2019-03-26T01:41:25.083Z,4.60
2019-03-26T01:43:57.058Z,4.60
2019-03-26T01:46:29.077Z,4.70
2019-03-26T01:49:01.090Z,4.70
2019-03-26T01:51:33.202Z,4.70
2019-03-26T01:54:05.099Z,4.60
2019-03-26T01:56:37.190Z,4.70
2019-03-26T01:59:09.462Z,4.70
2019-03-26T02:01:41.629Z,4.70
2019-03-26T02:04:13.646Z,4.70
2019-03-26T02:06:45.978Z,4.70
2019-03-26T02:09:17.969Z,4.70
2019-03-26T02:11:50.695Z,4.70
2019-03-26T02:14:23.067Z,4.70
2019-03-26T02:16:55.108Z,4.80
2019-03-26T02:19:27.101Z,4.70
2019-03-26T02:21:59.100Z,4.70
2019-03-26T02:24:31.409Z,4.70
2019-03-26T02:27:03.878Z,4.70
2019-03-26T02:29:36.177Z,4.60
2019-03-26T02:32:08.192Z,4.60
2019-03-26T02:34:40.596Z,4.60
2019-03-26T02:37:12.590Z,4.60
2019-03-26T02:39:44.708Z,4.50
2019-03-26T02:42:16.869Z,4.50
2019-03-26T02:44:49.660Z,4.40
2019-03-26T02:47:21.950Z,4.30
2019-03-26T02:49:55.173Z,4.30
2019-03-26T02:52:27.299Z,4.20
2019-03-26T02:54:59.390Z,4.20
2019-03-26T02:57:31.396Z,4.20
2019-03-26T03:00:03.304Z,4.20
2019-03-26T03:02:36.539Z,4.20
2019-03-26T03:05:08.771Z,4.20
2019-03-26T03:07:40.823Z,4.20
2019-03-26T03:10:12.970Z,4.20
2019-03-26T03:12:45.448Z,4.20
2019-03-26T03:15:17.637Z,4.20
2019-03-26T03:17:49.736Z,4.20
2019-03-26T03:20:21.972Z,4.20
2019-03-26T03:22:53.921Z,4.30
2019-03-26T03:25:25.902Z,4.30
2019-03-26T03:27:58.021Z,4.30
2019-03-26T03:30:30.379Z,4.30
2019-03-26T03:33:02.464Z,4.50
2019-03-26T03:35:50.801Z,4.50
2019-03-26T03:38:08.651Z,4.50
2019-03-26T03:40:40.817Z,4.50
2019-03-26T03:43:12.907Z,4.60
2019-03-26T03:45:45.784Z,4.60
2019-03-26T03:48:19.872Z,4.50
2019-03-26T03:50:54.041Z,4.50
2019-03-26T03:53:27.304Z,4.40
2019-03-26T03:56:01.247Z,4.40
2019-03-26T03:58:37.001Z,4.30
2019-03-26T04:01:09.182Z,4.20
2019-03-26T04:03:41.100Z,4.20
2019-03-26T04:06:14.199Z,4.20
2019-03-26T04:08:47.578Z,4.30
2019-03-26T04:11:20.096Z,4.30
2019-03-26T04:13:52.374Z,4.30
2019-03-26T04:16:24.501Z,4.40
2019-03-26T04:18:56.389Z,4.30
2019-03-26T04:21:28.428Z,4.30
2019-03-26T04:24:00.918Z,4.40
2019-03-26T04:26:33.142Z,4.30
2019-03-26T04:29:05.138Z,4.40
2019-03-26T04:31:37.187Z,4.40
2019-03-26T04:34:09.189Z,4.40
2019-03-26T04:36:41.291Z,4.40
2019-03-26T04:39:13.421Z,4.30
2019-03-26T04:41:45.629Z,4.30
2019-03-26T04:44:17.550Z,4.30
2019-03-26T04:46:49.576Z,4.20
2019-03-26T04:49:21.918Z,4.20
2019-03-26T04:51:54.481Z,4.20
2019-03-26T04:54:26.409Z,4.20
2019-03-26T04:56:58.822Z,4.30
2019-03-26T04:59:30.984Z,4.20
2019-03-26T05:02:02.898Z,4.30
2019-03-26T05:04:35.257Z,4.30
2019-03-26T05:07:07.923Z,4.30
2019-03-26T05:09:40.190Z,4.40
2019-03-26T05:12:14.095Z,4.30
2019-03-26T05:14:46.157Z,4.30
2019-03-26T05:17:18.118Z,4.30
2019-03-26T05:19:50.490Z,4.30
2019-03-26T05:22:24.349Z,4.30
2019-03-26T05:24:56.557Z,4.30
2019-03-26T05:27:28.466Z,4.30
2019-03-26T05:30:00.895Z,4.30
2019-03-26T05:32:33.927Z,4.30
2019-03-26T05:35:08.039Z,4.20
2019-03-26T05:37:40.168Z,4.30
2019-03-26T05:40:13.058Z,4.30
2019-03-26T05:42:45.101Z,4.40
2019-03-26T05:45:17.572Z,4.40
2019-03-26T05:47:49.872Z,4.30
2019-03-26T05:50:21.992Z,4.30
2019-03-26T05:52:54.215Z,4.20
2019-03-26T05:55:26.466Z,4.30
2019-03-26T05:57:59.873Z,4.30
2019-03-26T06:00:31.995Z,4.20
2019-03-26T06:03:04.542Z,4.30
2019-03-26T06:05:37.982Z,4.30
2019-03-26T06:08:10.038Z,4.30
2019-03-26T06:10:42.153Z,4.30
2019-03-26T06:13:14.176Z,4.30
2019-03-26T06:15:47.469Z,4.30
2019-03-26T06:18:19.733Z,4.30
2019-03-26T06:20:51.871Z,4.30
2019-03-26T06:23:23.934Z,4.30
2019-03-26T06:25:56.331Z,4.30
2019-03-26T06:28:28.274Z,4.40
2019-03-26T06:31:00.899Z,4.40
2019-03-26T06:33:32.873Z,4.50
2019-03-26T06:36:05.314Z,4.50
2019-03-26T06:38:37.240Z,4.70
2019-03-26T06:41:09.218Z,4.70
2019-03-26T06:43:41.625Z,4.70
2019-03-26T06:46:13.759Z,4.70
2019-03-26T06:48:45.771Z,4.70
2019-03-26T06:51:17.854Z,4.70
2019-03-26T06:53:50.078Z,4.60
2019-03-26T06:56:22.015Z,4.70
2019-03-26T06:58:54.256Z,4.70
2019-03-26T07:01:26.312Z,4.70
2019-03-26T07:03:59.052Z,4.70
2019-03-26T07:06:30.994Z,4.70
2019-03-26T07:09:02.995Z,4.70
2019-03-26T07:11:35.346Z,4.70
2019-03-26T07:14:07.615Z,4.70
2019-03-26T07:16:39.826Z,4.70
2019-03-26T07:19:11.924Z,4.70
2019-03-26T07:21:49.440Z,4.70
2019-03-26T07:24:17.934Z,4.80
2019-03-26T07:26:50.052Z,4.80
2019-03-26T07:29:22.054Z,4.80
2019-03-26T07:31:54.551Z,4.90
2019-03-26T07:34:26.519Z,5.00
2019-03-26T07:36:58.925Z,5.00
2019-03-26T07:39:31.198Z,5.00
2019-03-26T07:42:03.163Z,5.00
2019-03-26T07:44:35.086Z,5.00
2019-03-26T07:47:07.491Z,5.10
2019-03-26T07:49:39.500Z,5.00
2019-03-26T07:52:11.537Z,5.00
2019-03-26T07:54:43.688Z,5.10
2019-03-26T07:57:15.810Z,5.20
2019-03-26T07:59:47.816Z,5.30
2019-03-26T08:02:20.556Z,5.30
2019-03-26T08:04:52.460Z,5.50
2019-03-26T08:07:24.862Z,5.50
2019-03-26T08:09:58.152Z,5.50
2019-03-26T08:12:32.768Z,5.50
2019-03-26T08:15:04.166Z,5.50
2019-03-26T08:17:37.382Z,5.60
2019-03-26T08:20:12.513Z,5.60
2019-03-26T08:22:43.714Z,5.70
2019-03-26T08:25:15.796Z,5.70
2019-03-26T08:27:47.821Z,5.80
2019-03-26T08:30:19.866Z,5.80
2019-03-26T08:32:52.129Z,5.90
2019-03-26T08:35:24.177Z,5.90
2019-03-26T08:37:56.550Z,5.80
2019-03-26T08:40:28.827Z,5.80
2019-03-26T08:43:01.396Z,5.90
2019-03-26T08:45:33.887Z,5.90
2019-03-26T08:48:06.218Z,6.00
2019-03-26T08:50:38.163Z,5.90
2019-03-26T08:53:10.235Z,5.90
2019-03-26T08:55:42.209Z,5.80
2019-03-26T08:58:14.226Z,5.80
2019-03-26T09:00:46.309Z,5.80
2019-03-26T09:03:19.638Z,5.80
2019-03-26T09:05:52.053Z,5.80
2019-03-26T09:08:25.781Z,5.90
2019-03-26T09:10:58.066Z,6.00
2019-03-26T09:13:30.048Z,5.90
2019-03-26T09:16:02.151Z,5.90
2019-03-26T09:18:34.098Z,5.90
2019-03-26T09:21:06.158Z,6.00
2019-03-26T09:23:38.343Z,6.00
2019-03-26T09:26:10.381Z,6.10
2019-03-26T09:28:42.546Z,6.10
2019-03-26T09:31:14.568Z,6.10
2019-03-26T09:33:46.613Z,6.20
2019-03-26T09:36:18.728Z,6.30
2019-03-26T09:38:50.579Z,6.40
2019-03-26T09:41:23.144Z,6.20
2019-03-26T09:43:55.235Z,6.20
2019-03-26T09:46:27.169Z,6.20
2019-03-26T09:48:59.254Z,6.30
2019-03-26T09:51:31.316Z,6.40
2019-03-26T09:54:03.311Z,6.50
2019-03-26T09:56:35.402Z,6.50
2019-03-26T09:59:07.506Z,6.50
2019-03-26T10:01:39.429Z,6.60
2019-03-26T10:04:11.468Z,6.70
2019-03-26T10:06:43.501Z,6.80
2019-03-26T10:09:16.534Z,6.70
2019-03-26T10:11:48.453Z,6.50
2019-03-26T10:14:20.435Z,6.60
2019-03-26T10:16:52.484Z,6.60
2019-03-26T10:19:24.875Z,6.60
2019-03-26T10:21:56.944Z,6.70
2019-03-26T10:24:29.321Z,6.70
2019-03-26T10:27:01.396Z,6.70
2019-03-26T10:29:34.318Z,6.80
2019-03-26T10:32:06.507Z,6.80
2019-03-26T10:34:38.907Z,6.90
2019-03-26T10:37:10.955Z,7.00
2019-03-26T10:39:43.340Z,7.20
2019-03-26T10:42:15.253Z,7.20
2019-03-26T10:44:47.695Z,7.20
2019-03-26T10:47:19.639Z,7.30
2019-03-26T10:49:52.011Z,7.30
2019-03-26T10:52:23.977Z,7.20
2019-03-26T10:54:55.897Z,7.10
2019-03-26T10:57:27.811Z,7.10
2019-03-26T11:00:00.508Z,6.80
2019-03-26T11:02:32.852Z,6.70
2019-03-26T11:05:06.231Z,6.40
2019-03-26T11:07:38.193Z,6.40
2019-03-26T11:10:11.817Z,6.40
2019-03-26T11:12:43.853Z,6.50
2019-03-26T11:15:15.887Z,6.50
2019-03-26T11:17:47.860Z,6.40
2019-03-26T11:20:19.951Z,6.50
2019-03-26T11:22:52.002Z,6.40
2019-03-26T11:25:24.065Z,6.50
2019-03-26T11:27:56.071Z,6.50
2019-03-26T11:30:28.217Z,6.60
2019-03-26T11:33:00.364Z,6.70
2019-03-26T11:35:32.855Z,6.60
2019-03-26T11:38:04.906Z,6.70
2019-03-26T11:40:36.991Z,6.70
2019-03-26T11:43:09.035Z,6.70
2019-03-26T11:45:41.331Z,6.90
2019-03-26T11:48:13.304Z,6.80
2019-03-26T11:50:45.756Z,6.80
2019-03-26T11:53:17.767Z,6.80
2019-03-26T11:55:49.883Z,6.80
2019-03-26T11:58:30.511Z,6.80
2019-03-26T12:00:56.582Z,6.90
2019-03-26T12:03:28.652Z,7.00
2019-03-26T12:06:01.120Z,7.00
2019-03-26T12:08:34.196Z,7.10
2019-03-26T12:11:06.161Z,7.10
2019-03-26T12:13:38.636Z,7.20
2019-03-26T12:16:10.737Z,7.30
2019-03-26T12:18:42.916Z,7.30
2019-03-26T12:21:15.004Z,7.10
2019-03-26T12:23:47.009Z,7.30
2019-03-26T12:26:18.992Z,7.60
2019-03-26T12:28:51.438Z,7.60
2019-03-26T12:31:24.914Z,8.00
2019-03-26T12:33:57.415Z,8.70
2019-03-26T12:36:39.391Z,9.00
2019-03-26T12:39:04.441Z,9.10
2019-03-26T12:41:38.533Z,8.60
2019-03-26T12:44:10.305Z,8.40
2019-03-26T12:46:42.667Z,8.00
2019-03-26T12:49:15.019Z,8.00
2019-03-26T12:51:47.061Z,8.10
2019-03-26T12:54:19.950Z,8.30
2019-03-26T12:56:51.906Z,8.20
2019-03-26T12:59:26.499Z,8.50
2019-03-26T13:01:57.942Z,8.40
2019-03-26T13:04:31.403Z,8.50
2019-03-26T13:07:03.696Z,8.10
2019-03-26T13:09:35.655Z,8.20
2019-03-26T13:12:08.206Z,8.40
2019-03-26T13:14:40.152Z,8.50
2019-03-26T13:17:12.083Z,8.50
2019-03-26T13:19:44.286Z,8.40
2019-03-26T13:22:16.350Z,8.30
2019-03-26T13:24:49.142Z,8.20
2019-03-26T13:27:21.252Z,8.10
2019-03-26T13:29:53.409Z,8.10
2019-03-26T13:32:25.568Z,8.10
2019-03-26T13:34:57.530Z,8.20
2019-03-26T13:37:29.431Z,8.20
2019-03-26T13:40:01.378Z,8.20
2019-03-26T13:42:33.797Z,8.30
2019-03-26T13:45:06.105Z,8.70
2019-03-26T13:47:38.135Z,8.80
2019-03-26T13:50:11.427Z,8.70
2019-03-26T13:52:43.893Z,8.30
2019-03-26T13:55:16.213Z,8.30
2019-03-26T13:57:48.609Z,8.20
2019-03-26T14:00:42.689Z,8.20
2019-03-26T14:03:15.094Z,8.30
2019-03-26T14:05:47.163Z,8.40
2019-03-26T14:08:19.280Z,8.40
2019-03-26T14:10:51.336Z,8.10
2019-03-26T14:13:23.427Z,7.90
2019-03-26T14:15:55.523Z,7.90
2019-03-26T14:18:27.610Z,8.00
2019-03-26T14:21:00.148Z,7.90
2019-03-26T14:23:32.287Z,7.80
2019-03-26T14:26:04.366Z,7.80
2019-03-26T14:28:37.050Z,7.70
2019-03-26T14:31:09.130Z,7.70
2019-03-26T14:33:41.353Z,7.80
2019-03-26T14:36:14.096Z,7.80
2019-03-26T14:38:46.332Z,7.80
2019-03-26T14:41:19.110Z,7.80
2019-03-26T14:43:51.486Z,7.90
2019-03-26T14:46:23.569Z,7.80
2019-03-26T14:48:55.591Z,7.60
2019-03-26T14:51:27.894Z,7.60
2019-03-26T14:54:00.887Z,7.60
2019-03-26T14:56:33.289Z,7.50
2019-03-26T14:59:05.816Z,7.60
2019-03-26T15:01:37.922Z,7.50
2019-03-26T15:04:09.952Z,7.50
2019-03-26T15:06:41.911Z,7.40
2019-03-26T15:09:14.028Z,7.50
2019-03-26T15:11:48.174Z,7.60
2019-03-26T15:14:20.569Z,7.40
2019-03-26T15:16:53.239Z,7.30
2019-03-26T15:19:25.309Z,7.30
2019-03-26T15:21:57.436Z,7.40
2019-03-26T15:24:29.913Z,7.30
2019-03-26T15:27:02.314Z,7.40
2019-03-26T15:29:34.947Z,7.30
2019-03-26T15:32:07.462Z,7.20
2019-03-26T15:34:39.974Z,7.10
2019-03-26T15:37:12.386Z,7.20
2019-03-26T15:39:44.716Z,7.30
2019-03-26T15:42:16.758Z,7.20
2019-03-26T15:44:48.771Z,7.20
2019-03-26T15:47:22.161Z,7.30
2019-03-26T15:49:55.774Z,7.20
2019-03-26T15:52:28.008Z,7.20
2019-03-26T15:55:00.497Z,7.10
2019-03-26T15:57:33.418Z,7.10
2019-03-26T16:00:06.723Z,7.20
2019-03-26T16:02:38.719Z,7.20
2019-03-26T16:05:11.236Z,7.10
2019-03-26T16:07:43.239Z,7.10
2019-03-26T16:10:15.339Z,7.10
2019-03-26T16:12:47.424Z,7.00
2019-03-26T16:15:19.463Z,7.00
2019-03-26T16:17:51.682Z,6.90
2019-03-26T16:20:24.165Z,6.90
2019-03-26T16:22:56.179Z,6.90
2019-03-26T16:25:28.205Z,6.80
2019-03-26T16:28:00.206Z,6.80
2019-03-26T16:30:34.437Z,6.90
2019-03-26T16:33:06.446Z,6.80
2019-03-26T16:35:40.203Z,6.70
2019-03-26T16:38:12.599Z,6.70
2019-03-26T16:40:46.575Z,6.70
2019-03-26T16:43:18.691Z,6.70
2019-03-26T16:45:51.799Z,6.70
2019-03-26T16:48:23.819Z,6.60
2019-03-26T16:50:58.152Z,6.60
2019-03-26T16:53:32.269Z,6.60
2019-03-26T16:56:08.714Z,6.70
2019-03-26T16:58:41.015Z,6.60
2019-03-26T17:01:14.009Z,6.60
2019-03-26T17:03:46.610Z,6.60
2019-03-26T17:06:18.631Z,6.60
2019-03-26T17:08:50.619Z,6.60
2019-03-26T17:11:24.853Z,6.50
2019-03-26T17:13:57.058Z,6.50
2019-03-26T17:16:30.500Z,6.50
2019-03-26T17:19:02.485Z,6.50
2019-03-26T17:21:34.914Z,6.50
2019-03-26T17:24:07.584Z,6.50
2019-03-26T17:26:39.608Z,6.50
2019-03-26T17:29:11.669Z,6.50
2019-03-26T17:31:44.073Z,6.50
2019-03-26T17:34:15.975Z,6.50
2019-03-26T17:36:48.095Z,6.50
2019-03-26T17:39:20.122Z,6.40
2019-03-26T17:41:52.203Z,6.50
2019-03-26T17:44:24.616Z,6.40
2019-03-26T17:46:57.241Z,6.40
2019-03-26T17:49:29.302Z,6.30
2019-03-26T17:52:02.755Z,6.30
2019-03-26T17:54:35.907Z,6.30
2019-03-26T17:57:08.350Z,6.30
2019-03-26T17:59:40.803Z,6.30
2019-03-26T18:02:12.988Z,6.40
2019-03-26T18:04:45.634Z,6.40
2019-03-26T18:07:17.877Z,6.40
2019-03-26T18:09:49.959Z,6.40
2019-03-26T18:12:30.670Z,6.40
2019-03-26T18:14:56.787Z,6.40
2019-03-26T18:17:29.204Z,6.40
2019-03-26T18:20:01.509Z,6.30
2019-03-26T18:22:33.877Z,6.30
2019-03-26T18:25:06.510Z,6.30
2019-03-26T18:27:38.688Z,6.20
2019-03-26T18:30:11.239Z,6.10
2019-03-26T18:32:43.787Z,6.00
2019-03-26T18:35:15.910Z,5.90
2019-03-26T18:37:48.314Z,5.90
2019-03-26T18:40:20.366Z,5.90
2019-03-26T18:42:52.774Z,5.80
2019-03-26T18:45:24.829Z,5.80
2019-03-26T18:47:56.773Z,5.80
2019-03-26T18:50:29.182Z,5.80
2019-03-26T18:53:01.299Z,5.70
2019-03-26T18:55:33.672Z,5.70
2019-03-26T18:58:05.763Z,5.70
2019-03-26T19:00:39.454Z,5.70
2019-03-26T19:03:11.882Z,5.60
2019-03-26T19:05:43.993Z,5.60
2019-03-26T19:08:16.018Z,5.60
2019-03-26T19:10:51.070Z,5.40
2019-03-26T19:13:23.464Z,5.30
2019-03-26T19:15:55.604Z,5.20
2019-03-26T19:18:27.658Z,5.20
2019-03-26T19:21:02.369Z,5.10
2019-03-26T19:23:34.643Z,5.10
2019-03-26T19:26:06.722Z,5.10
2019-03-26T19:28:38.633Z,5.10
2019-03-26T19:31:11.298Z,5.10
2019-03-26T19:33:43.304Z,5.00
2019-03-26T19:36:15.325Z,5.00
2019-03-26T19:38:47.827Z,5.00
2019-03-26T19:41:20.222Z,5.00
2019-03-26T19:43:52.309Z,5.10
2019-03-26T19:46:24.372Z,5.00
2019-03-26T19:48:56.419Z,5.00
2019-03-26T19:51:28.353Z,5.00
2019-03-26T19:54:00.345Z,5.00
2019-03-26T19:56:32.356Z,5.00
2019-03-26T19:59:04.406Z,4.90
2019-03-26T20:01:36.662Z,4.90
2019-03-26T20:04:08.684Z,4.90
2019-03-26T20:06:40.765Z,4.90
2019-03-26T20:09:13.637Z,4.90
2019-03-26T20:11:45.980Z,4.80
2019-03-26T20:14:18.421Z,4.80
2019-03-26T20:16:50.361Z,4.80
2019-03-26T20:19:22.410Z,4.80
2019-03-26T20:21:54.444Z,4.80
2019-03-26T20:24:26.454Z,4.80
2019-03-26T20:26:58.547Z,4.90
2019-03-26T20:29:31.520Z,4.90
2019-03-26T20:32:03.602Z,4.90
2019-03-26T20:34:35.662Z,4.90
2019-03-26T20:37:07.760Z,4.90
2019-03-26T20:39:40.284Z,4.90
2019-03-26T20:42:12.373Z,4.90
2019-03-26T20:44:45.575Z,5.00
2019-03-26T20:47:17.636Z,5.00
2019-03-26T20:49:50.283Z,5.00
2019-03-26T20:52:22.623Z,5.00
2019-03-26T20:54:55.073Z,5.00
2019-03-26T20:57:27.362Z,5.10
2019-03-26T20:59:59.983Z,5.10
2019-03-26T21:02:31.836Z,5.20
2019-03-26T21:05:03.944Z,5.20
2019-03-26T21:07:36.334Z,5.20
2019-03-26T21:10:11.184Z,5.20
2019-03-26T21:12:43.655Z,5.20
2019-03-26T21:15:15.723Z,5.20
2019-03-26T21:17:48.057Z,5.20
2019-03-26T21:20:20.122Z,5.30
2019-03-26T21:22:52.352Z,5.30
2019-03-26T21:25:25.128Z,5.30
2019-03-26T21:27:57.509Z,5.30
2019-03-26T21:30:29.606Z,5.40
2019-03-26T21:33:01.622Z,5.40
2019-03-26T21:35:33.710Z,5.40
2019-03-26T21:38:05.936Z,5.50
2019-03-26T21:40:38.016Z,5.50
2019-03-26T21:43:10.343Z,5.50
2019-03-26T21:45:42.504Z,5.60
2019-03-26T21:48:14.775Z,5.60
2019-03-26T21:50:47.128Z,5.60
2019-03-26T21:53:19.209Z,5.70
2019-03-26T21:55:51.301Z,5.70
2019-03-26T21:58:23.402Z,5.70
2019-03-26T22:00:56.664Z,5.70
2019-03-26T22:03:28.738Z,5.70
2019-03-26T22:06:00.739Z,5.70
2019-03-26T22:08:35.762Z,5.70
2019-03-26T22:11:09.530Z,5.70
2019-03-26T22:13:41.669Z,5.60
2019-03-26T22:16:16.704Z,5.60
2019-03-26T22:18:48.770Z,5.60
2019-03-26T22:21:21.091Z,5.60
2019-03-26T22:23:54.212Z,5.50
2019-03-26T22:26:27.088Z,5.60
2019-03-26T22:28:59.599Z,5.60
2019-03-26T22:31:31.523Z,5.60
2019-03-26T22:34:03.822Z,5.50
2019-03-26T22:39:15.536Z,5.50
2019-03-26T22:41:48.263Z,5.50
2019-03-26T22:44:30.867Z,5.40
2019-03-26T22:46:54.821Z,5.40
2019-03-26T22:49:27.534Z,5.50
2019-03-26T22:51:59.642Z,5.50
2019-03-26T22:54:31.584Z,5.50
2019-03-26T22:57:03.589Z,5.50
2019-03-26T22:59:35.819Z,5.50
2019-03-26T23:02:08.843Z,5.40
2019-03-26T23:04:41.037Z,5.40
2019-03-26T23:07:13.722Z,5.40
2019-03-26T23:09:46.237Z,5.40
2019-03-26T23:12:19.665Z,5.40
2019-03-26T23:14:51.772Z,5.50
2019-03-26T23:17:23.949Z,5.40
2019-03-26T23:19:55.960Z,5.40
2019-03-26T23:22:28.047Z,5.40
2019-03-26T23:25:00.315Z,5.40
2019-03-26T23:27:32.504Z,5.40
2019-03-26T23:30:05.251Z,5.40
2019-03-26T23:32:37.616Z,5.40
2019-03-26T23:35:10.175Z,5.40
2019-03-26T23:37:42.657Z,5.40
2019-03-26T23:40:15.044Z,5.30
2019-03-26T23:42:47.529Z,5.30
2019-03-26T23:45:19.651Z,5.30
2019-03-26T23:47:52.084Z,5.20
2019-03-26T23:50:24.078Z,5.20
2019-03-26T23:52:56.083Z,5.20
2019-03-26T23:55:28.119Z,5.20
2019-03-26T23:58:00.545Z,5.20
